Terminal Aerodrome Forecast
Issued by NWS

Home | Current Version | Previous Version | Text Only | Print | Product List | Glossary On
Versions: 1 2 3 4 5 6 7 8 9 10 11 12 13
000
FTUS42 TJSJ 292340
TAFIST
TAF
TIST 292340Z 3000/3024 13005KT P6SM FEW021 OVC090
     FM300300 10004KT P6SM VCSH SCT020 BKN090
     FM301330 15010KT P6SM VCTS SCT022CB BKN040
     FM302300 09008KT P6SM SCT025 BKN070=

USA.gov is the U.S. government's official web portal to all federal, state and local government web resources and services.